Terminal Aerodrome Forecast
Issued by NWS

Home | Current Version | Previous Version | Text Only | Print | Product List | Glossary On
Versions: 1 2 3 4 5 6 7 8 9 10 11 12 13 14 15 16
000
FTUS46 KSGX 292320
TAFSNA
TAF
KSNA 292320Z 3000/3024 22005KT P6SM SCT015 SCT100
     FM300200 VRB05KT P6SM BKN012 BKN100
     FM300500 VRB05KT P6SM VCTS BKN015 BKN100CB
     FM301700 VRB05KT P6SM SCT016=

USA.gov is the U.S. government's official web portal to all federal, state and local government web resources and services.